»·PEaware :: ASA427 KBOI-KIDA

ASA427 :: KBOI-KIDA

FLIGHT INFORMATION

Flight Status: Arrived
Operator:
Alaska Airlines
More flights by this operator :: More flights under this callsign
Pilot: Ben F. (13029)
Aircraft: BOEING 737-300
(B733)
More flights by this aircraft type
Origin: KBOI Boise Air Terminal/Gowen
United States
Destination: KIDA Idaho Falls Regl
United States
More flights between these airports :: More routes between these airports
Route: +BOI3 NATZZ
File this flight plan on PilotEdge
Remarks: RMK / SIMBRIEF
Altitude:
(Current/Filed)
25,000ft
Speed:
(Current/Filed)
403kts
Departed: 06-Apr-19 11:32 AM
Arrived: 06-Apr-19 12:11 PM
Distance/Time
Traveled:
181nm/0:39
Distance/Time
To Go:
Arrived

Flight Plot

Page will automatically refresh every two minutes.

Flight plan parsing failed; only flown route is shown


Map Options




Map Legend


Flown Route
Filed Route
Departure Airport
Arrival Airport
Navaid (VOR, NDB)
Fix

Horizontal Profiles

Position Reports

Time Latitude Longitude Heading Altitude Ground
Speed
06-Apr-19 11:10 43.567091 -116.218221 292 2851ft 0kts
06-Apr-19 11:11 43.567091 -116.218221 292 2851ft 0kts
06-Apr-19 11:12 43.567091 -116.218221 292 2851ft 0kts
06-Apr-19 11:13 43.567091 -116.218221 292 2851ft 0kts
06-Apr-19 11:14 43.567091 -116.218221 292 2851ft 0kts
06-Apr-19 11:15 43.567091 -116.218221 292 2851ft 0kts
06-Apr-19 11:16 43.567091 -116.218221 292 2851ft 0kts
06-Apr-19 11:17 43.567091 -116.218221 292 2851ft 0kts
06-Apr-19 11:18 43.567091 -116.218221 292 2851ft 0kts
06-Apr-19 11:19 43.567091 -116.218221 292 2851ft 0kts
06-Apr-19 11:20 43.567091 -116.218221 292 2851ft 0kts
06-Apr-19 11:21 43.567091 -116.218221 292 2851ft 0kts
06-Apr-19 11:22 43.567091 -116.218221 292 2851ft 0kts
06-Apr-19 11:23 43.567052 -116.218092 292 2851ft 0kts
06-Apr-19 11:24 43.567230 -116.217424 203 2852ft 0kts
06-Apr-19 11:25 43.566652 -116.217714 199 2853ft 0kts
06-Apr-19 11:26 43.566652 -116.217714 199 2853ft 0kts
06-Apr-19 11:27 43.565738 -116.218216 288 2853ft 10kts
06-Apr-19 11:28 43.566855 -116.223549 294 2848ft 20kts
06-Apr-19 11:29 43.569901 -116.232449 295 2835ft 29kts
06-Apr-19 11:30 43.569979 -116.236239 116 2829ft 0kts
06-Apr-19 11:31 43.563142 -116.215955 113 3078ft 148kts
06-Apr-19 11:32 43.546281 -116.156951 113 5766ft 167kts
06-Apr-19 11:33 43.528978 -116.096770 116 8056ft 172kts
06-Apr-19 11:34 43.512830 -116.033353 91 9999ft 196kts
06-Apr-19 11:35 43.523030 -115.955141 94 11588ft 218kts
06-Apr-19 11:36 43.529222 -115.875584 95 13526ft 206kts
06-Apr-19 11:37 43.535385 -115.795288 94 14873ft 217kts
06-Apr-19 11:38 43.542593 -115.699785 92 15619ft 278kts
06-Apr-19 11:40 43.551384 -115.585282 91 17337ft 310kts
06-Apr-19 11:41 43.560495 -115.464161 91 19365ft 323kts
06-Apr-19 11:42 43.569797 -115.338342 91 21369ft 331kts
06-Apr-19 11:43 43.571973 -115.212425 98 23225ft 330kts
06-Apr-19 11:44 43.571060 -115.076841 96 23693ft 378kts
06-Apr-19 11:45 43.570282 -114.933923 95 24676ft 386kts
06-Apr-19 11:46 43.569268 -114.786107 95 24629ft 383kts
06-Apr-19 11:47 43.568041 -114.637826 95 24634ft 384kts
06-Apr-19 11:48 43.566633 -114.490218 95 24632ft 383kts
06-Apr-19 11:49 43.565028 -114.341970 96 24626ft 383kts
06-Apr-19 11:50 43.563283 -114.194693 96 23263ft 374kts
06-Apr-19 11:51 43.561417 -114.054826 96 21416ft 357kts
06-Apr-19 11:52 43.559456 -113.920576 96 19503ft 343kts
06-Apr-19 11:53 43.557423 -113.791350 95 17624ft 331kts
06-Apr-19 11:54 43.555321 -113.666379 95 15699ft 318kts
06-Apr-19 11:55 43.553151 -113.546978 95 14534ft 309kts
06-Apr-19 11:56 43.550828 -113.427132 94 14573ft 313kts
06-Apr-19 11:57 43.548419 -113.306036 95 14576ft 313kts
06-Apr-19 11:58 43.545922 -113.185827 95 14230ft 305kts
06-Apr-19 11:59 43.543499 -113.073430 95 11318ft 286kts
06-Apr-19 11:59 43.541415 -112.982700 95 9556ft 282kts
06-Apr-19 12:00 43.538847 -112.875425 95 8557ft 280kts
06-Apr-19 12:02 43.535657 -112.748163 95 8587ft 285kts
06-Apr-19 12:02 43.533350 -112.658402 95 8572ft 283kts
06-Apr-19 12:03 43.530441 -112.549322 94 8562ft 283kts
06-Apr-19 12:04 43.527534 -112.442278 95 8059ft 258kts
06-Apr-19 12:06 43.524507 -112.336445 96 7569ft 225kts
06-Apr-19 12:06 43.522589 -112.269532 97 7584ft 204kts
06-Apr-19 12:07 43.518981 -112.191319 105 7411ft 199kts
06-Apr-19 12:08 43.495937 -112.123592 119 6038ft 172kts
06-Apr-19 12:09 43.513241 -112.073759 38 4739ft 110kts
06-Apr-19 12:10 43.516518 -112.068194 207 4735ft 10kts
06-Apr-19 12:11 43.515703 -112.068180 156 4735ft 0kts
06-Apr-19 12:12 43.515703 -112.068180 156 4735ft 0kts

Navigation Log

Ident Type
Flight plan parsing failed, navigation log unavailable